Time;durP1;ratioP1;P1;durP2;ratioP2;P2;SDS_P1;SDS_P2;PMS_P1;PMS_P2;Temp;Humidity;BMP_temperature;BMP_pressure;BME280_temperature;BME280_humidity;BME280_pressure;Samples;Min_cycle;Max_cycle;Signal;HPM_P1;HPM_P2
2022/06/27 07:47:18;;;;;;;7.72;1.38;;;13.10;50.10;;;;;;5059860;28;20063;-64
2022/06/27 07:49:46;;;;;;;4.57;1.20;;;13.00;49.90;;;;;;5044974;28;20060;-66
2022/06/27 07:52:13;;;;;;;4.55;1.55;;;13.10;49.50;;;;;;5054611;28;20127;-66
2022/06/27 07:54:40;;;;;;;5.55;1.33;;;13.10;49.90;;;;;;5058256;28;20509;-69
2022/06/27 07:57:08;;;;;;;3.03;1.05;;;13.00;49.40;;;;;;5066337;28;20113;-68
2022/06/27 07:59:36;;;;;;;4.35;1.48;;;13.00;49.30;;;;;;5056591;28;20395;-68
2022/06/27 08:02:03;;;;;;;5.63;1.30;;;13.00;49.70;;;;;;5024337;28;20057;-68
2022/06/27 08:04:31;;;;;;;6.18;1.40;;;13.00;49.60;;;;;;5055615;28;20040;-68
2022/06/27 08:06:59;;;;;;;5.22;1.10;;;12.90;49.50;;;;;;5009488;28;20407;-69
2022/06/27 08:09:26;;;;;;;4.20;1.20;;;12.90;49.40;;;;;;5042914;28;20049;-66
2022/06/27 08:11:54;;;;;;;3.95;1.20;;;12.80;50.10;;;;;;5052503;28;20113;-66
2022/06/27 08:14:21;;;;;;;2.75;1.15;;;12.80;49.80;;;;;;5050043;28;20501;-65
2022/06/27 08:16:50;;;;;;;6.05;1.50;;;12.80;49.70;;;;;;5050226;28;20120;-65
2022/06/27 08:19:19;;;;;;;4.68;1.40;;;12.80;49.80;;;;;;5029550;28;20103;-66
2022/06/27 08:21:47;;;;;;;3.50;1.48;;;12.80;49.60;;;;;;5043518;28;20037;-66
2022/06/27 08:24:18;;;;;;;5.10;1.40;;;12.80;50.00;;;;;;5043910;28;20033;-66
2022/06/27 08:26:46;;;;;;;3.03;1.48;;;12.80;50.10;;;;;;5030550;28;20025;-65
2022/06/27 08:29:15;;;;;;;3.05;1.25;;;12.80;50.60;;;;;;5018944;28;20129;-67
2022/06/27 08:31:44;;;;;;;8.77;1.58;;;12.80;50.90;;;;;;5025813;28;20045;-65
2022/06/27 08:34:13;;;;;;;16.15;1.88;;;12.80;52.50;;;;;;5027344;28;20117;-65
2022/06/27 08:36:40;;;;;;;2.97;1.20;;;12.70;55.30;;;;;;5012692;28;20120;-65
2022/06/27 08:39:11;;;;;;;5.05;1.67;;;12.70;56.60;;;;;;5029849;28;20129;-67
2022/06/27 08:41:38;;;;;;;4.15;1.50;;;12.60;57.50;;;;;;5041331;28;20043;-67
2022/06/27 08:44:06;;;;;;;6.28;1.70;;;12.50;56.20;;;;;;5048218;28;20041;-67
2022/06/27 08:46:34;;;;;;;3.35;1.23;;;12.40;56.40;;;;;;5040626;28;20468;-66
2022/06/27 08:49:02;;;;;;;5.68;1.60;;;12.40;55.20;;;;;;5024319;28;20041;-65
2022/06/27 08:51:31;;;;;;;2.05;1.08;;;12.40;55.70;;;;;;5025855;28;20077;-64
2022/06/27 08:53:58;;;;;;;2.63;1.25;;;12.40;55.00;;;;;;5025304;28;20462;-64
2022/06/27 08:56:29;;;;;;;4.68;1.50;;;12.30;54.70;;;;;;5022915;28;20041;-65
2022/06/27 08:58:58;;;;;;;;;;;12.30;53.70;;;;;;5017752;28;21288;-67
2022/06/27 09:01:27;;;;;;;3.58;1.40;;;12.30;53.40;;;;;;5019047;28;19928;-68
2022/06/27 09:04:00;;;;;;;2.97;1.20;;;12.30;53.40;;;;;;5029834;28;20053;-68
2022/06/27 09:06:30;;;;;;;3.00;1.38;;;12.30;53.10;;;;;;5027424;28;20510;-68
2022/06/27 09:09:08;;;;;;;3.07;1.40;;;12.20;53.20;;;;;;5020715;28;20038;-68
2022/06/27 09:11:41;;;;;;;5.03;1.60;;;12.20;52.90;;;;;;5039942;28;20037;-68
2022/06/27 09:14:37;;;;;;;5.57;1.50;;;12.20;53.30;;;;;;5029776;28;20490;-68
2022/06/27 11:22:23;;;;;;;6.90;1.50;;;11.80;67.80;;;;;;5038829;28;20041;-67
2022/06/27 11:24:50;;;;;;;6.72;1.52;;;11.80;67.10;;;;;;5036490;28;20061;-67
2022/06/27 11:27:17;;;;;;;3.53;1.42;;;11.80;66.00;;;;;;5021257;28;20538;-68
2022/06/27 11:32:34;;;;;;;4.27;1.60;;;11.70;65.90;;;;;;5048531;28;20083;-67
2022/06/27 11:35:01;;;;;;;5.72;1.48;;;11.60;66.50;;;;;;5025845;28;20037;-66
2022/06/27 11:37:29;;;;;;;4.50;1.40;;;11.60;67.40;;;;;;5009561;28;20474;-66
2022/06/27 11:40:07;;;;;;;4.30;1.60;;;11.50;67.50;;;;;;5002427;28;20056;-66
2022/06/27 11:42:35;;;;;;;2.10;1.60;;;11.40;67.60;;;;;;5040035;28;20047;-67
2022/06/27 11:45:11;;;;;;;1.52;1.30;;;11.40;67.70;;;;;;5043454;28;20032;-67
2022/06/27 11:47:40;;;;;;;7.07;1.70;;;11.30;67.30;;;;;;5044319;28;20112;-67
2022/06/27 11:50:13;;;;;;;5.85;1.80;;;11.30;67.00;;;;;;5046805;28;20562;-68
2022/06/27 11:52:44;;;;;;;8.68;1.77;;;11.30;66.00;;;;;;5045683;28;20048;-69
2022/06/27 11:55:13;;;;;;;4.38;1.95;;;11.20;67.60;;;;;;5047711;28;20451;-69
2022/06/27 11:57:51;;;;;;;7.53;1.73;;;11.20;68.80;;;;;;5025018;28;20037;-70
2022/06/27 12:00:20;;;;;;;4.43;1.80;;;11.20;68.10;;;;;;5041434;28;20106;-68
2022/06/27 12:03:00;;;;;;;4.10;1.98;;;11.10;67.70;;;;;;5041728;28;20526;-69
2022/06/27 12:05:28;;;;;;;5.97;1.80;;;11.10;68.70;;;;;;5046142;28;20143;-68
2022/06/27 12:07:56;;;;;;;2.38;1.55;;;11.10;69.00;;;;;;5045582;28;20054;-69
2022/06/27 12:11:32;;;;;;;5.00;1.70;;;11.00;69.50;;;;;;5040738;28;20029;-69
2022/06/27 12:13:38;;;;;;;14.48;3.15;;;10.90;72.20;;;;;;5012610;28;20119;-68
2022/06/27 12:16:07;;;;;;;11.90;2.13;;;10.70;76.90;;;;;;5018443;28;20037;-68
2022/06/27 12:18:36;;;;;;;11.88;2.83;;;10.40;80.90;;;;;;5044919;28;20071;-66
2022/06/27 12:21:03;;;;;;;11.23;2.30;;;10.20;84.30;;;;;;5044755;28;20048;-67
2022/06/27 12:23:30;;;;;;;5.97;1.95;;;10.00;84.70;;;;;;5043880;28;20795;-64
2022/06/27 12:25:58;;;;;;;5.20;2.20;;;9.90;85.40;;;;;;5046093;28;20124;-66
2022/06/27 12:28:25;;;;;;;8.95;1.88;;;9.80;86.00;;;;;;5044717;28;20399;-65
2022/06/27 12:30:52;;;;;;;4.60;2.00;;;9.70;86.40;;;;;;5040989;28;20099;-64
2022/06/27 12:33:20;;;;;;;5.30;1.80;;;9.70;86.60;;;;;;5042054;28;20041;-62
2022/06/27 12:35:47;;;;;;;6.38;2.28;;;9.60;86.20;;;;;;5041914;28;20692;-62
2022/06/27 12:38:14;;;;;;;4.47;1.95;;;9.50;85.50;;;;;;5026512;28;20734;-65
2022/06/27 12:40:41;;;;;;;4.60;2.00;;;9.50;85.30;;;;;;5049500;28;20037;-64
2022/06/27 12:43:09;;;;;;;8.77;2.00;;;9.50;85.80;;;;;;5047008;28;20116;-65
2022/06/27 12:45:36;;;;;;;5.93;2.28;;;9.50;85.90;;;;;;5042428;28;20041;-65
2022/06/27 12:48:05;;;;;;;5.05;2.00;;;9.50;85.50;;;;;;5040461;28;20035;-66
2022/06/27 12:50:32;;;;;;;6.50;2.03;;;9.60;86.50;;;;;;5069616;28;20043;-66
2022/06/27 12:52:59;;;;;;;10.13;1.88;;;9.50;85.60;;;;;;5041416;28;20107;-66
2022/06/27 12:55:27;;;;;;;4.30;2.08;;;9.60;85.10;;;;;;5058156;28;20068;-66
2022/06/27 12:57:54;;;;;;;8.07;2.80;;;9.60;85.00;;;;;;5055576;28;20056;-66
2022/06/27 13:00:21;;;;;;;4.28;2.00;;;9.70;85.40;;;;;;5049241;28;20079;-66
2022/06/27 13:02:49;;;;;;;5.32;2.42;;;9.70;85.80;;;;;;5053595;28;20446;-66
2022/06/27 13:05:17;;;;;;;8.40;2.45;;;9.70;85.20;;;;;;5052018;28;20064;-66
2022/06/27 13:07:44;;;;;;;5.75;2.38;;;9.70;84.80;;;;;;5051018;28;20045;-66
2022/06/27 13:10:11;;;;;;;7.03;2.00;;;9.70;85.20;;;;;;5053089;28;20067;-66
2022/06/27 13:12:38;;;;;;;3.72;2.20;;;9.70;84.50;;;;;;5048540;28;20383;-66
2022/06/27 13:15:06;;;;;;;5.82;2.58;;;9.70;84.70;;;;;;5049215;28;20395;-66
2022/06/27 13:17:33;;;;;;;5.88;2.38;;;9.70;84.40;;;;;;5056422;28;20465;-67
2022/06/27 13:20:00;;;;;;;5.38;2.28;;;9.70;84.60;;;;;;5056906;28;20052;-66
2022/06/27 13:22:27;;;;;;;5.97;2.17;;;9.70;83.90;;;;;;5056670;28;20112;-67
2022/06/27 13:24:54;;;;;;;6.05;1.92;;;9.70;84.80;;;;;;5056450;28;20037;-67
2022/06/27 13:40:00;;;;;;;10.98;2.53;;;9.70;82.20;;;;;;5040634;28;20534;-67
2022/06/27 13:42:28;;;;;;;8.52;2.10;;;9.70;81.50;;;;;;5029361;28;20065;-68
2022/06/27 13:44:55;;;;;;;6.13;2.15;;;9.70;81.40;;;;;;5030723;28;20124;-68
2022/06/27 13:47:22;;;;;;;5.20;2.00;;;9.70;81.20;;;;;;5027436;28;20038;-68
2022/06/27 13:49:50;;;;;;;8.35;2.30;;;9.70;80.60;;;;;;5030703;28;20116;-67
2022/06/27 13:52:20;;;;;;;4.20;1.80;;;9.70;80.00;;;;;;5030323;28;20045;-67
2022/06/27 13:54:48;;;;;;;4.40;2.05;;;9.80;81.40;;;;;;5030865;28;20034;-67
2022/06/27 13:57:15;;;;;;;7.05;2.10;;;9.70;81.10;;;;;;5032640;28;20049;-67
2022/06/27 13:59:42;;;;;;;6.40;1.98;;;9.70;80.70;;;;;;5028735;28;20088;-64
2022/06/27 14:02:10;;;;;;;5.78;2.00;;;9.70;79.00;;;;;;5030485;28;20063;-65
2022/06/27 14:04:37;;;;;;;1.20;1.15;;;9.70;78.70;;;;;;5027260;28;20501;-65
2022/06/27 14:09:50;;;;;;;5.68;2.17;;;9.80;79.10;;;;;;5030143;28;20072;-66
2022/06/27 14:12:17;;;;;;;14.50;2.30;;;9.80;79.70;;;;;;5030047;28;20104;-64
2022/06/27 14:14:44;;;;;;;5.30;2.30;;;9.70;78.50;;;;;;5025159;28;20030;-66
2022/06/27 14:17:12;;;;;;;6.28;2.42;;;9.80;79.60;;;;;;5029867;28;20140;-66
2022/06/27 14:19:39;;;;;;;3.97;2.05;;;9.70;79.80;;;;;;5029403;28;20068;-66
2022/06/27 14:22:06;;;;;;;7.22;1.98;;;9.70;79.10;;;;;;5031466;28;20045;-66
2022/06/27 14:24:34;;;;;;;6.65;1.98;;;9.70;79.60;;;;;;5030144;28;20025;-66
2022/06/27 14:27:01;;;;;;;7.03;1.98;;;9.70;79.70;;;;;;5029425;28;20512;-66
2022/06/27 14:29:28;;;;;;;5.15;1.88;;;9.70;78.40;;;;;;5032116;28;20133;-66
2022/06/27 14:31:55;;;;;;;2.75;1.65;;;9.60;78.20;;;;;;5030870;28;20036;-66
2022/06/27 14:34:23;;;;;;;8.52;2.10;;;9.60;78.60;;;;;;5024768;28;20111;-66
2022/06/27 14:36:50;;;;;;;6.07;1.92;;;9.60;78.10;;;;;;5008591;28;20034;-67
2022/06/27 14:39:17;;;;;;;4.57;1.80;;;9.60;78.00;;;;;;5027760;28;20499;-66
2022/06/27 14:41:47;;;;;;;7.18;2.22;;;9.60;78.20;;;;;;5031746;28;20136;-66
2022/06/27 14:44:18;;;;;;;6.25;1.63;;;9.60;79.00;;;;;;5029134;28;20029;-66
2022/06/27 14:46:46;;;;;;;3.20;1.45;;;9.50;78.60;;;;;;5029892;28;20369;-67
2022/06/27 14:49:13;;;;;;;4.20;1.85;;;9.50;79.70;;;;;;5027894;28;20068;-66
2022/06/27 14:51:40;;;;;;;5.03;1.77;;;9.50;80.30;;;;;;5042296;28;20098;-67
2022/06/27 14:54:09;;;;;;;3.35;1.52;;;9.50;79.70;;;;;;5030117;28;20041;-66
2022/06/27 14:56:36;;;;;;;4.25;2.08;;;9.50;80.90;;;;;;5031264;28;20033;-66
2022/06/27 14:59:04;;;;;;;4.30;1.70;;;9.50;80.30;;;;;;5030678;28;20078;-66
2022/06/27 15:01:31;;;;;;;4.95;1.67;;;9.50;80.20;;;;;;5029604;28;20074;-66
2022/06/27 15:03:58;;;;;;;4.40;1.83;;;9.50;80.50;;;;;;5028834;28;20041;-67
2022/06/27 15:06:26;;;;;;;5.05;1.60;;;9.50;80.00;;;;;;5028641;28;20483;-66
2022/06/27 15:08:53;;;;;;;6.95;1.95;;;9.40;79.30;;;;;;5028942;28;20037;-66
2022/06/27 15:11:44;;;;;;;5.55;1.70;;;9.40;79.50;;;;;;5028136;28;20130;-67
2022/06/27 15:14:13;;;;;;;6.68;1.70;;;9.50;79.10;;;;;;5028772;28;20038;-67
2022/06/27 15:16:46;;;;;;;7.57;1.67;;;9.50;78.40;;;;;;5030533;28;20034;-68
2022/06/27 15:19:15;;;;;;;6.22;1.70;;;9.50;78.50;;;;;;5030819;28;20533;-67
2022/06/27 15:21:43;;;;;;;5.38;1.45;;;9.50;77.40;;;;;;5029962;28;20045;-68
2022/06/27 15:24:11;;;;;;;5.63;1.60;;;9.50;78.00;;;;;;5030559;28;20034;-67
2022/06/27 15:26:38;;;;;;;2.70;1.30;;;9.50;77.60;;;;;;5031266;28;20167;-67
2022/06/27 15:29:06;;;;;;;1.85;1.17;;;9.50;77.70;;;;;;5024055;28;20111;-67
2022/06/27 15:31:33;;;;;;;5.13;2.05;;;9.50;77.20;;;;;;5026771;28;20116;-68
2022/06/27 15:34:01;;;;;;;4.95;2.05;;;9.50;77.30;;;;;;5028281;28;20041;-68
2022/06/27 15:36:31;;;;;;;3.35;1.55;;;9.50;76.90;;;;;;5029078;28;20030;-68
2022/06/27 15:38:58;;;;;;;3.80;1.50;;;9.40;76.80;;;;;;5029659;28;20025;-67
2022/06/27 15:41:25;;;;;;;5.40;1.70;;;9.50;77.20;;;;;;5030171;28;20041;-68
2022/06/27 15:43:53;;;;;;;6.75;1.60;;;9.50;76.90;;;;;;5029469;28;20034;-68
2022/06/27 15:46:20;;;;;;;4.15;1.38;;;9.40;77.00;;;;;;5028089;28;20041;-68
2022/06/27 15:48:47;;;;;;;4.07;1.60;;;9.40;77.10;;;;;;5031247;28;20128;-68
2022/06/27 15:51:15;;;;;;;5.60;1.77;;;9.40;77.80;;;;;;5029218;28;20089;-68
2022/06/27 15:53:42;;;;;;;3.85;1.27;;;9.50;76.90;;;;;;5029257;28;20112;-68
2022/06/27 15:56:09;;;;;;;4.53;1.20;;;9.40;77.50;;;;;;5029575;28;20038;-67
2022/06/27 15:58:37;;;;;;;2.50;1.30;;;9.50;77.30;;;;;;5028303;28;20128;-68
2022/06/27 16:01:04;;;;;;;4.55;1.30;;;9.40;77.10;;;;;;5020151;28;20046;-68
2022/06/27 16:03:32;;;;;;;3.35;1.27;;;9.40;77.50;;;;;;5028919;28;20030;-68
2022/06/27 16:05:59;;;;;;;6.38;1.45;;;9.40;77.70;;;;;;5026430;28;20111;-68
2022/06/27 16:08:26;;;;;;;5.93;1.42;;;9.40;77.40;;;;;;5028407;28;20052;-67
2022/06/27 16:10:53;;;;;;;5.72;1.75;;;9.40;77.40;;;;;;5027730;28;20093;-68
2022/06/27 16:13:22;;;;;;;3.40;2.00;;;9.30;77.30;;;;;;5025119;28;20622;-67
2022/06/27 16:15:50;;;;;;;5.45;1.20;;;9.30;77.80;;;;;;5013704;28;20030;-67
2022/06/27 16:18:18;;;;;;;4.70;1.50;;;9.30;77.10;;;;;;5026857;28;20507;-67
2022/06/27 16:20:45;;;;;;;4.43;1.55;;;9.40;76.80;;;;;;5028415;28;20140;-68
2022/06/27 16:23:12;;;;;;;6.63;1.45;;;9.40;76.90;;;;;;5028300;28;20131;-68
2022/06/27 16:25:40;;;;;;;7.68;1.38;;;9.30;76.80;;;;;;5025623;28;20034;-67
2022/06/27 16:28:08;;;;;;;8.18;2.58;;;9.30;76.90;;;;;;5027382;28;20729;-68
2022/06/27 16:33:20;;;;;;;3.03;1.20;;;9.30;76.40;;;;;;5028769;28;20150;-68
2022/06/27 16:35:50;;;;;;;3.60;1.42;;;9.30;77.00;;;;;;5030774;28;20033;-67
2022/06/27 16:38:17;;;;;;;4.15;1.27;;;9.30;76.30;;;;;;5019438;28;20117;-68
2022/06/27 16:40:44;;;;;;;5.68;1.20;;;9.30;76.50;;;;;;5011268;28;20050;-67
2022/06/27 16:43:15;;;;;;;1.60;1.00;;;9.30;76.60;;;;;;5023026;28;20030;-67
2022/06/27 16:45:48;;;;;;;3.63;1.20;;;9.30;76.80;;;;;;5029497;28;20452;-68
2022/06/27 16:48:16;;;;;;;1.50;1.00;;;9.30;77.10;;;;;;5026022;28;20033;-68
2022/06/27 16:50:44;;;;;;;3.08;1.23;;;9.30;77.30;;;;;;5029958;28;20155;-68
2022/06/27 16:53:12;;;;;;;7.03;1.73;;;9.30;77.00;;;;;;5029389;28;20377;-68
2022/06/27 16:55:39;;;;;;;3.30;1.00;;;9.30;76.90;;;;;;5029341;28;20030;-68
2022/06/27 17:18:59;;;;;;;2.30;0.90;;;9.40;76.30;;;;;;5034823;28;20055;-67
2022/06/27 17:21:26;;;;;;;2.97;1.10;;;9.40;76.00;;;;;;5043669;28;20052;-67
2022/06/27 17:23:54;;;;;;;6.60;1.05;;;9.40;75.90;;;;;;5042905;28;20130;-67
2022/06/27 17:26:21;;;;;;;3.72;1.30;;;9.40;75.90;;;;;;5049836;28;20406;-67
2022/06/27 17:28:48;;;;;;;5.40;0.95;;;9.40;75.90;;;;;;5059890;28;20040;-67
2022/06/27 17:31:15;;;;;;;5.10;0.93;;;9.40;75.90;;;;;;5060943;28;20048;-67
2022/06/27 17:33:42;;;;;;;4.50;1.30;;;9.30;75.50;;;;;;5028378;28;20441;-68
2022/06/27 17:36:10;;;;;;;2.92;0.93;;;9.30;75.70;;;;;;5049295;28;20529;-68
2022/06/27 17:38:37;;;;;;;3.35;0.77;;;9.20;75.70;;;;;;5062476;28;21979;-67
2022/06/27 17:41:04;;;;;;;3.03;1.15;;;9.20;75.30;;;;;;5056884;28;20492;-67
2022/06/27 17:43:32;;;;;;;3.28;0.90;;;9.20;75.50;;;;;;5064043;28;20032;-67
2022/06/27 17:45:59;;;;;;;2.58;0.82;;;9.10;75.70;;;;;;5059083;28;20510;-67
2022/06/27 17:48:26;;;;;;;2.47;0.88;;;9.10;75.70;;;;;;5053847;28;20041;-67
2022/06/27 17:50:53;;;;;;;6.85;1.23;;;9.10;75.40;;;;;;5056740;28;20112;-68
2022/06/27 17:53:20;;;;;;;5.07;1.20;;;9.10;75.40;;;;;;5074177;28;20473;-69
2022/06/27 17:55:48;;;;;;;4.35;0.88;;;9.10;75.10;;;;;;5028559;28;20040;-67
2022/06/27 17:58:15;;;;;;;3.00;0.85;;;9.20;75.00;;;;;;5048514;28;20125;-67
2022/06/27 18:00:43;;;;;;;5.93;1.35;;;9.20;75.70;;;;;;5065065;28;20040;-68
2022/06/27 18:03:11;;;;;;;2.55;1.00;;;9.20;76.00;;;;;;5062127;28;20467;-67
2022/06/27 18:05:38;;;;;;;2.53;0.85;;;9.10;76.20;;;;;;5033410;28;20032;-68
2022/06/27 18:08:05;;;;;;;2.70;0.93;;;9.10;76.40;;;;;;5061515;28;20053;-67
2022/06/27 18:10:33;;;;;;;1.42;0.82;;;9.10;76.40;;;;;;5037473;28;20036;-68
2022/06/27 18:13:00;;;;;;;1.52;1.00;;;9.10;76.50;;;;;;5056573;28;20570;-68
2022/06/27 18:15:27;;;;;;;2.63;0.98;;;9.00;76.00;;;;;;5025355;28;20117;-68
2022/06/27 18:17:54;;;;;;;5.07;0.98;;;9.00;76.00;;;;;;5050284;28;20075;-68
2022/06/27 18:20:22;;;;;;;14.32;6.38;;;9.00;75.60;;;;;;5051973;28;20053;-68
2022/06/27 18:22:49;;;;;;;3.40;0.90;;;9.00;75.20;;;;;;5032074;28;20041;-68
2022/06/27 18:25:16;;;;;;;2.63;0.77;;;9.00;75.00;;;;;;5053391;28;20029;-68
2022/06/27 18:27:44;;;;;;;4.32;1.08;;;9.00;74.90;;;;;;5042516;28;20048;-68
2022/06/27 18:30:12;;;;;;;2.15;0.80;;;9.00;74.30;;;;;;5067672;28;20490;-69
2022/06/27 18:32:40;;;;;;;1.98;1.13;;;9.00;74.20;;;;;;5071954;28;20041;-68
2022/06/27 18:35:08;;;;;;;3.28;0.77;;;9.00;73.90;;;;;;5049283;28;20076;-68
2022/06/27 18:37:35;;;;;;;2.20;1.25;;;9.10;74.00;;;;;;5045335;28;20124;-68
2022/06/27 18:40:03;;;;;;;2.58;1.25;;;9.10;73.20;;;;;;5059985;28;20033;-68
2022/06/27 18:42:32;;;;;;;2.67;0.90;;;9.10;73.10;;;;;;5036038;28;20056;-68
2022/06/27 18:44:59;;;;;;;2.38;1.05;;;9.10;72.60;;;;;;5041881;28;20459;-69
2022/06/27 18:47:26;;;;;;;2.22;0.90;;;9.10;72.80;;;;;;5061746;28;20066;-68
2022/06/27 18:49:53;;;;;;;4.38;1.05;;;9.20;72.40;;;;;;5050931;28;20036;-69
2022/06/27 18:52:21;;;;;;;3.90;1.10;;;9.10;72.40;;;;;;5062442;28;20087;-68
2022/06/27 18:54:48;;;;;;;2.05;1.00;;;9.20;72.40;;;;;;5046514;28;20040;-68
2022/06/27 18:57:15;;;;;;;2.13;1.05;;;9.10;72.50;;;;;;5052721;28;20037;-68
2022/06/27 18:59:43;;;;;;;2.10;1.00;;;9.10;71.90;;;;;;5056952;28;20064;-68
2022/06/27 19:02:10;;;;;;;4.70;1.10;;;9.10;72.00;;;;;;5052801;28;20407;-68
2022/06/27 19:04:37;;;;;;;2.70;0.90;;;9.00;72.40;;;;;;5029159;28;20021;-69
2022/06/27 19:07:04;;;;;;;1.05;0.90;;;9.00;72.50;;;;;;5060425;28;20025;-67
2022/06/27 19:09:31;;;;;;;3.50;1.25;;;9.00;71.80;;;;;;5048149;28;20143;-68
2022/06/27 19:11:58;;;;;;;0.63;0.63;;;9.00;72.20;;;;;;5054764;28;20063;-68
2022/06/27 19:14:26;;;;;;;2.03;1.00;;;8.90;72.50;;;;;;5060229;28;20025;-68
2022/06/27 19:16:53;;;;;;;2.60;1.05;;;8.90;72.60;;;;;;5050705;28;20047;-68
2022/06/27 19:19:20;;;;;;;1.88;0.82;;;8.90;72.90;;;;;;5028222;28;20435;-68
2022/06/27 19:21:49;;;;;;;3.70;1.20;;;8.90;72.80;;;;;;5026433;28;20049;-68
2022/06/27 19:24:17;;;;;;;3.20;0.93;;;8.90;72.70;;;;;;5050042;28;20033;-69
2022/06/27 19:26:44;;;;;;;1.40;0.93;;;8.90;72.80;;;;;;5053149;28;20108;-68
2022/06/27 19:29:11;;;;;;;5.85;1.48;;;8.90;72.50;;;;;;5053287;28;20067;-68
2022/06/27 19:31:38;;;;;;;1.50;0.73;;;8.90;72.90;;;;;;5049545;28;20029;-69
2022/06/27 19:34:06;;;;;;;2.08;0.95;;;8.80;72.50;;;;;;5050009;28;20029;-70
2022/06/27 19:36:34;;;;;;;2.08;0.90;;;8.80;72.80;;;;;;5041872;28;20033;-69
2022/06/27 19:39:01;;;;;;;2.53;1.00;;;8.80;72.80;;;;;;5046590;28;20045;-68
2022/06/27 19:41:28;;;;;;;6.22;1.20;;;8.80;73.80;;;;;;5043276;28;20403;-66
2022/06/27 19:43:56;;;;;;;4.22;0.90;;;8.70;73.00;;;;;;5035524;28;20439;-68
2022/06/27 19:46:23;;;;;;;3.60;1.20;;;8.80;73.20;;;;;;5046304;28;20095;-68
2022/06/27 19:48:50;;;;;;;1.70;0.85;;;8.70;73.80;;;;;;5047226;28;20029;-67
2022/06/27 19:51:17;;;;;;;3.75;1.00;;;8.80;74.00;;;;;;5045955;28;20030;-68
2022/06/27 19:53:44;;;;;;;3.72;1.00;;;8.80;73.70;;;;;;5048942;28;20033;-68
2022/06/27 19:56:11;;;;;;;1.33;0.82;;;8.80;73.60;;;;;;5026061;28;20037;-69
2022/06/27 19:58:39;;;;;;;1.05;0.95;;;8.80;73.10;;;;;;5046929;28;20115;-68
2022/06/27 20:01:06;;;;;;;2.13;0.95;;;8.80;73.60;;;;;;5020212;28;20048;-69
2022/06/27 20:03:34;;;;;;;1.13;0.77;;;8.80;72.60;;;;;;5048231;28;20125;-69
2022/06/27 20:06:02;;;;;;;8.18;2.45;;;8.90;73.80;;;;;;5022877;28;20061;-69
2022/06/27 20:08:30;;;;;;;2.40;1.20;;;8.80;72.70;;;;;;5048433;28;20029;-69
2022/06/27 20:10:57;;;;;;;2.50;0.90;;;8.80;73.30;;;;;;5013306;28;20040;-69
2022/06/27 20:13:25;;;;;;;5.22;1.00;;;8.90;73.20;;;;;;5049853;28;20502;-69
2022/06/27 20:15:52;;;;;;;2.50;0.88;;;8.90;73.50;;;;;;5049346;28;20507;-69
2022/06/27 20:18:19;;;;;;;3.65;1.45;;;8.90;73.90;;;;;;5048706;28;20076;-69
2022/06/27 21:32:04;;;;;;;4.82;1.35;;;8.90;72.20;;;;;;5037577;28;20043;-64
2022/06/27 21:34:32;;;;;;;5.38;1.58;;;9.00;73.00;;;;;;5046648;28;20644;-65
2022/06/27 21:36:59;;;;;;;4.20;1.63;;;9.00;73.40;;;;;;5058062;28;20031;-64
2022/06/27 21:39:27;;;;;;;4.63;1.20;;;9.00;73.50;;;;;;5024613;28;20033;-64
2022/06/27 21:41:54;;;;;;;3.88;1.23;;;9.00;74.60;;;;;;5050612;28;20037;-65
2022/06/27 21:44:21;;;;;;;2.78;1.33;;;9.00;75.20;;;;;;5062484;28;20478;-64
2022/06/27 21:46:49;;;;;;;3.95;1.58;;;9.00;75.90;;;;;;5054983;28;20044;-65
2022/06/27 21:49:16;;;;;;;4.18;1.30;;;9.00;76.10;;;;;;5059493;28;20032;-65
2022/06/27 21:51:43;;;;;;;3.75;1.30;;;9.00;75.50;;;;;;5051604;28;20041;-65
2022/06/27 21:54:12;;;;;;;4.60;1.20;;;9.00;75.30;;;;;;5066069;28;20037;-65
2022/06/27 21:56:40;;;;;;;6.05;1.20;;;9.10;75.60;;;;;;5052437;28;20060;-65
2022/06/27 21:59:07;;;;;;;5.00;1.30;;;9.00;76.00;;;;;;5051411;28;20108;-65
2022/06/27 22:01:34;;;;;;;3.88;1.50;;;9.10;75.30;;;;;;5049271;28;20044;-64
2022/06/27 22:04:01;;;;;;;5.88;1.35;;;9.10;75.20;;;;;;5071079;28;20033;-65
2022/06/27 22:06:29;;;;;;;6.50;1.40;;;9.10;75.20;;;;;;5055342;28;20047;-65
2022/06/27 22:08:56;;;;;;;5.10;1.30;;;9.20;75.20;;;;;;5036059;28;20074;-66
2022/06/27 22:11:23;;;;;;;6.25;2.08;;;9.20;75.70;;;;;;5043994;28;20041;-66
2022/06/27 22:13:50;;;;;;;2.40;1.25;;;9.20;75.10;;;;;;5060697;28;20055;-66
2022/06/27 22:16:17;;;;;;;5.95;1.38;;;9.20;74.80;;;;;;5040665;28;20044;-66
2022/06/27 22:18:45;;;;;;;6.55;1.40;;;9.20;75.00;;;;;;5050218;28;20170;-66
2022/06/27 22:21:12;;;;;;;4.55;1.48;;;9.20;75.00;;;;;;5037083;28;20053;-66
2022/06/27 22:23:40;;;;;;;6.25;1.27;;;9.20;75.30;;;;;;5061786;28;20037;-65
2022/06/27 22:26:07;;;;;;;4.20;1.30;;;9.20;75.20;;;;;;5054929;28;20435;-65
2022/06/27 22:28:34;;;;;;;6.13;1.70;;;9.30;75.50;;;;;;5051150;28;20036;-66
